Tiempo atmosférico en la estación meteorológica de Muniesa, Teruel (800 m.)



Fecha
DESCASC
Temp. máxima en grados centígrados (hora)
DESCASC
Temp. mínima en grados centígrados (hora)
DESCASC
Temp. media en grados centígrados
DESCASC
Racha de viento máxima en m/sg (hora)
DESCASC
Velocidad máxima media en intervalos de 10 minutos(hora)
DESCASC
Precipitaciones diarias en mm
DESCASC
Precipitaciones de 00:00 a 06:00 en mm
DESCASC
Precipitaciones de 06:00 a 12:00 en mm
DESCASC
Precipitaciones de 12:00 a 18:00 en mm
DESCASC
Precipitaciones de 18:00 a 24:00 en mm
DESCASC
24-09-2020 20.3 (18:40) 12.9 (23:59) 16.6 8.33 (13:30) 5.28 (13:30) 1.8 0 0 1.8 0
23-09-2020 23.8 (15:30) 13.5 (00:00) 18.6 11.39 (15:40) 6.67 (16:00) 0 0 0 0 0
22-09-2020 24 (17:00) 10.5 (00:00) 17.3 6.39 (17:40) 3.61 (17:50) 0 0 0 0 0
21-09-2020 22.7 (16:30) 14.4 (00:00) 18.6 9.44 (17:50) 4.44 (13:40) 0 0 0 0 0
20-09-2020 24.3 (16:10) 13.5 (00:00) 18.9 10.28 (14:40) 6.11 (16:20) 0 0 0 0 0
19-09-2020 22.5 (15:20) 14.9 (00:00) 18.7 12.5 (11:10) 7.22 (11:00) 0 0 0 0 0
18-09-2020 23.5 (14:40) 14.7 (00:00) 19.1 16.94 (21:40) 7.78 (21:50) 3.4 0 0.2 2.8 0.4
17-09-2020 28.2 (14:40) 17.6 (00:00) 22.9 11.39 (14:40) 7.22 (15:30) 0 0 0 0 0
16-09-2020 28.9 (14:30) 16.6 (07:10) 22.8 -- (--) -- (--) 0 0 0 0 0
15-09-2020 29.3 (16:50) 16.4 (00:00) 22.8 14.44 (02:10) 8.89 (02:00) 2.4 0 0 2.4 0
14-09-2020 29.9 (15:10) 17.4 (00:00) 23.6 10.28 (15:50) 6.67 (16:10) 0 0 0 0 0
13-09-2020 30.6 (15:20) 14.8 (00:00) 22.7 9.44 (17:00) 6.39 (18:40) 0 0 0 0 0
12-09-2020 28.6 (16:30) 13.2 (08:00) 20.9 8.61 (15:20) 3.61 (15:10) 0 0 0 0 0
11-09-2020 28 (17:20) 11.8 (00:00) 19.9 6.94 (17:00) 3.61 (18:20) 0 0 0 0 0
10-09-2020 27 (15:40) 12.7 (00:00) 19.8 8.33 (15:10) 4.44 (16:40) 0.2 0 0.2 0 0
09-09-2020 25.2 (16:50) 11.4 (07:20) 18.3 6.11 (20:50) 4.17 (21:40) 0.4 0 0 0 0.4
08-09-2020 23.3 (16:20) 9.1 (00:00) 16.2 8.33 (15:30) 4.72 (15:30) 0 0 0 0 0
07-09-2020 21.5 (16:40) 11.4 (06:20) 16.4 12.5 (11:30) 8.33 (11:30) 0 0 0 0 0
06-09-2020 23.7 (16:50) 13.4 (00:00) 18.6 9.44 (21:50) 5.56 (21:50) 0 0 0 0 0
05-09-2020 28.7 (16:40) 14.8 (00:00) 21.8 7.5 (21:40) 4.17 (21:40) 0 0 0 0 0
04-09-2020 29.5 (16:30) 15.3 (00:00) 22.4 8.06 (15:30) 4.72 (15:30) 0 0 0 0 0
03-09-2020 28.3 (17:30) 10.5 (00:00) 19.4 6.94 (18:20) 3.89 (18:20) 0 0 0 0 0
02-09-2020 24.7 (16:10) 11.5 (00:00) 18.1 9.17 (17:00) 5 (10:00) 0 0 0 0 0
01-09-2020 23.5 (18:40) 11.6 (00:00) 17.6 5 (16:40) 3.06 (15:20) 0 0 0 0 0
31-08-2020 25.6 (18:10) 9.3 (00:00) 17.5 7.5 (02:20) 4.72 (05:50) 0 0 0 0 0
30-08-2020 20.2 (16:40) 9.6 (00:00) 14.9 12.22 (00:50) 7.5 (00:40) 0 0 0 0 0
29-08-2020 21.5 (16:10) 12.7 (00:00) 17.1 13.33 (19:30) 9.17 (19:30) 0 0 0 0 0
28-08-2020 27.9 (14:50) 14.7 (00:00) 21.3 10.83 (21:10) 6.39 (19:50) 0.2 0 0 0.2 0

Gráficas

Temp. máximas Temp. mínimas Temp. medias Precipitaciones Rachas de viento máximas Velocidades máximas media en intervalos de 10 minutos

Datos horarios

Fecha y hora oficial Temperatura (ºC) Velocidad del viento (km/h) Dirección del viento Racha (km/h) Dirección de racha Precipitación (mm) Presión (hPa) Tendencia (hPa) Humedad (%)
2020-09-26 23:00:00 15.6 32 Oeste 52 Sudoeste 0 -- -- 54
2020-09-26 22:00:00 15.2 28 Oeste 45 Oeste 0 -- -- 54
2020-09-26 21:00:00 14.9 21 Oeste 41 Oeste 0 -- -- 55
2020-09-26 20:00:00 15.3 21 Oeste 48 Oeste 0 -- -- 55
2020-09-26 19:00:00 16.4 28 Oeste 45 Oeste 0 -- -- 51
2020-09-26 18:00:00 16.7 24 Oeste 41 Oeste 0 -- -- 49
2020-09-26 17:00:00 17.5 19 Oeste 41 Oeste 0 -- -- 47
2020-09-26 16:00:00 17.8 22 Noroeste 39 Oeste 0 -- -- 45
2020-09-26 15:00:00 17.4 25 Noroeste 40 Noroeste 0 -- -- 45
2020-09-26 14:00:00 16.8 30 Noroeste 47 Noroeste 0 -- -- 47
2020-09-26 13:00:00 15.8 29 Noroeste 44 Noroeste 0 -- -- 49
2020-09-26 12:00:00 13.8 24 Noroeste 51 Noroeste 0 -- -- 54
2020-09-26 11:00:00 11.6 20 Oeste 37 Noroeste 0 -- -- 60
2020-09-26 10:00:00 10.1 18 Oeste 30 Oeste 0 -- -- 64
2020-09-26 09:00:00 8.3 13 Oeste 29 Oeste 0 -- -- 70
2020-09-26 08:00:00 8.1 16 Oeste 27 Oeste 0 -- -- 70
2020-09-26 07:00:00 8.5 15 Oeste 24 Sudoeste 0 -- -- 68
2020-09-26 06:00:00 8.3 13 Oeste 21 Oeste 0 -- -- 69
2020-09-26 05:00:00 8 13 Noroeste 23 Noroeste 0 -- -- 70
2020-09-26 04:00:00 8.7 10 Oeste 33 Noroeste 0 -- -- 67
2020-09-26 03:00:00 8.9 12 Noroeste 26 Noroeste 0 -- -- 67
2020-09-26 02:00:00 8.9 13 Noroeste 21 Noroeste 0 -- -- 67
2020-09-26 01:00:00 8.2 9 Oeste 24 Oeste 0 -- -- 70
2020-09-26 00:00:00 8.1 8 Oeste 21 Oeste 0 -- -- 70
2020-09-25 23:00:00 8.9 14 Noroeste 23 Noroeste 0 -- -- 67
2020-09-25 22:00:00 9.7 13 Noroeste 25 Noroeste 0 -- -- 63
2020-09-25 21:00:00 10.2 14 Noroeste 34 Noroeste 0 -- -- 62
2020-09-25 20:00:00 11.2 22 Noroeste 42 Noroeste 0 -- -- 59
2020-09-25 19:00:00 12.4 27 Noroeste 42 Noroeste 0 -- -- 55
2020-09-25 18:00:00 13.7 22 Noroeste 46 Noroeste 0 -- -- 52
2020-09-25 17:00:00 14.4 22 Noroeste 46 Noroeste 0 -- -- 50
2020-09-25 16:00:00 13.4 28 Noroeste 46 Noroeste 0 -- -- 53
2020-09-25 15:00:00 14.4 28 Noroeste 46 Noroeste 0 -- -- 48
2020-09-25 14:00:00 14 23 Noroeste 52 Oeste 0 -- -- 44
2020-09-25 13:00:00 13.9 25 Oeste 52 Oeste 0 -- -- 46
2020-09-25 12:00:00 13.1 31 Oeste 52 Oeste 0 -- -- 49
2020-09-25 11:00:00 12.5 28 Oeste 48 Oeste 0 -- -- 54
2020-09-25 10:00:00 10.4 14 Noroeste 28 Norte 0 -- -- 77
2020-09-25 09:00:00 8.6 7 Norte 16 Norte 0 -- -- 90
2020-09-25 08:00:00 9 12 Noroeste 31 Noroeste 0 -- -- 86
2020-09-25 07:00:00 10.9 14 Noroeste 37 Oeste 0 -- -- 74
2020-09-25 06:00:00 12.9 18 Oeste 42 Oeste 0 -- -- 61
2020-09-25 05:00:00 12.6 17 Oeste 35 Oeste 0 -- -- 63
2020-09-25 04:00:00 12.5 10 Noroeste 23 Noroeste 0 -- -- 62
2020-09-25 03:00:00 12.6 11 Noroeste 24 Oeste 0 -- -- 62
2020-09-25 02:00:00 12.6 9 Oeste 16 Oeste 0 -- -- 65
2020-09-25 01:00:00 12.4 10 Noroeste 15 Noroeste 0 -- -- 70
2020-09-25 00:00:00 12.9 6 Oeste 12 Oeste 0 -- -- 69
2020-09-24 23:00:00 14 8 Noroeste 14 Oeste 0 -- -- 66
2020-09-24 22:00:00 15.1 5 Oeste 14 Oeste 0 -- -- 66
2020-09-24 21:00:00 17.4 6 Oeste 17 Sudoeste 0 -- -- 59
2020-09-24 20:00:00 18.6 8 Oeste 24 Oeste 0 -- -- 60
2020-09-24 19:00:00 20.3 14 Oeste 28 Oeste 0 -- -- 59
2020-09-24 18:00:00 19.7 10 Oeste 22 Noroeste 0 -- -- 66
2020-09-24 17:00:00 19.4 9 Oeste 22 Noroeste 0 -- -- 73
2020-09-24 16:00:00 18.8 9 Oeste 22 Oeste 0 -- -- 77
2020-09-24 15:00:00 18.6 14 Noroeste 24 Oeste 0 -- -- 80
2020-09-24 14:00:00 17.3 16 Sudoeste 30 Sudoeste 1.4 -- -- 83
2020-09-24 13:00:00 17 11 Oeste 19 Sudoeste 0.4 -- -- 82
2020-09-24 12:00:00 18.1 15 Sudoeste 25 Sudoeste 0 -- -- 73
2020-09-24 11:00:00 18.3 6 Sudoeste 14 Sudoeste 0 -- -- 68
2020-09-24 10:00:00 17.2 0 Calma 4 Sudoeste 0 -- -- 73
2020-09-24 09:00:00 15.8 0 Calma 6 Norte 0 -- -- 78
2020-09-24 08:00:00 15.3 0 Calma 6 Oeste 0 -- -- 79
2020-09-24 07:00:00 16 4 Oeste 21 Sudoeste 0 -- -- 75
2020-09-24 06:00:00 16.6 8 Oeste 23 Sudoeste 0 -- -- 72
2020-09-24 05:00:00 16.8 4 Oeste 14 Sudoeste 0 -- -- 71
2020-09-24 04:00:00 17.5 9 Sudoeste 23 Sudoeste 0 -- -- 69
2020-09-24 03:00:00 18 13 Sudoeste 19 Sudoeste 0 -- -- 66
2020-09-24 02:00:00 18 6 Sudoeste 12 Oeste 0 -- -- 66
2020-09-24 01:00:00 18.5 3 Oeste 26 Sudoeste 0 -- -- 63
2020-09-24 00:00:00 19.1 10 Sudoeste 17 Sudoeste 0 -- -- 61
2020-09-23 23:00:00 19.3 7 Oeste 13 Sudoeste 0 -- -- 58
2020-09-23 22:00:00 19.6 8 Oeste 20 Sudoeste 0 -- -- 56
2020-09-23 21:00:00 18.9 2 Oeste 6 Oeste 0 -- -- 64
2020-09-23 20:00:00 19 4 Noroeste 22 Oeste 0 -- -- 62
2020-09-23 19:00:00 19.8 13 Noroeste 32 Noroeste 0 -- -- 62
2020-09-23 18:00:00 23.8 21 Oeste 37 Sudoeste 0 -- -- 44
2020-09-23 17:00:00 22.9 16 Oeste 36 Oeste 0 -- -- 47
2020-09-23 16:00:00 22.8 24 Sudoeste 41 Sudoeste 0 -- -- 48
2020-09-23 15:00:00 22.8 17 Oeste 33 Oeste 0 -- -- 49
2020-09-23 14:00:00 22 15 Oeste 25 Sudoeste 0 -- -- 52
2020-09-23 13:00:00 21.4 16 Oeste 34 Sudoeste 0 -- -- 53
2020-09-23 12:00:00 20.9 12 Oeste 25 Oeste 0 -- -- 53
2020-09-23 11:00:00 19.8 8 Sudoeste 19 Sudoeste 0 -- -- 57
2020-09-23 10:00:00 18.3 8 Sur 13 Sur 0 -- -- 60
2020-09-23 09:00:00 15.1 0 Calma 9 Sur 0 -- -- 71
2020-09-23 08:00:00 13.7 3 Sur 12 Sur 0 -- -- 74
2020-09-23 07:00:00 14.1 7 Sur 18 Sudoeste 0 -- -- 71
2020-09-23 06:00:00 15.2 12 Sudoeste 19 Sudoeste 0 -- -- 66
2020-09-23 05:00:00 14 4 Sudoeste 13 Sur 0 -- -- 68
2020-09-23 04:00:00 14.7 9 Sur 19 Sur 0 -- -- 62
2020-09-23 03:00:00 14.6 8 Sur 10 Sur 0 -- -- 62
2020-09-23 02:00:00 14.4 3 Sur 13 Sur 0 -- -- 62
2020-09-23 01:00:00 15.2 5 Sudeste 14 Oeste 0 -- -- 62
2020-09-23 00:00:00 15.9 7 Oeste 15 Oeste 0 -- -- 58
2020-09-22 23:00:00 16.5 5 Sur 10 Sur 0 -- -- 66
2020-09-22 22:00:00 17 3 Noroeste 8 Sudeste 0 -- -- 64
2020-09-22 21:00:00 18.5 6 Sudeste 9 Sudeste 0 -- -- 60
2020-09-22 20:00:00 20.1 8 Este 14 Este 0 -- -- 55
2020-09-22 19:00:00 21.7 6 Nordeste 18 Nordeste 0 -- -- 50
2020-09-22 18:00:00 22.3 11 Nordeste 23 Nordeste 0 -- -- 49
2020-09-22 17:00:00 24 13 Noroeste 18 Noroeste 0 -- -- 43
2020-09-22 16:00:00 23.2 8 Noroeste 17 Noroeste 0 -- -- 45
2020-09-22 15:00:00 22.7 4 Nordeste 19 Noroeste 0 -- -- 48
2020-09-22 14:00:00 21.8 8 Nordeste 15 Nordeste 0 -- -- 53
2020-09-22 13:00:00 21 6 Norte 17 Noroeste 0 -- -- 56
2020-09-22 12:00:00 19.6 5 Noroeste 12 Noroeste 0 -- -- 59
2020-09-22 11:00:00 17.6 3 Noroeste 7 Noroeste 0 -- -- 67
2020-09-22 10:00:00 15.4 2 Sudoeste 5 Sur 0 -- -- 75
2020-09-22 09:00:00 11.9 4 Sur 8 Sudoeste 0 -- -- 89
2020-09-22 08:00:00 10.5 5 Sur 10 Sur 0 -- -- 90
2020-09-22 07:00:00 10.6 5 Sur 8 Sur 0 -- -- 89
2020-09-22 06:00:00 11 5 Sur 9 Sur 0 -- -- 88
2020-09-22 05:00:00 11.9 4 Sur 6 Sur 0 -- -- 87
2020-09-22 04:00:00 13.5 2 Sudoeste 10 Oeste 0 -- -- 84
2020-09-22 03:00:00 14.4 3 Noroeste 20 Oeste 0 -- -- 81
2020-09-22 02:00:00 14.1 5 Oeste 9 Oeste 0 -- -- 78
2020-09-22 01:00:00 14 5 Sur 9 Sur 0 -- -- 78
2020-09-22 00:00:00 14.5 5 Sur 9 Sudoeste 0 -- -- 76
2020-09-21 23:00:00 15 5 Sur 8 Sur 0 -- -- 73
2020-09-21 22:00:00 15.8 4 Sur 5 Sur 0 -- -- 70
2020-09-21 21:00:00 17.6 2 Noroeste 14 Noroeste 0 -- -- 64
2020-09-21 20:00:00 19.4 8 Norte 21 Norte 0 -- -- 59
2020-09-21 19:00:00 21.3 12 Norte 21 Norte 0 -- -- 53
2020-09-21 18:00:00 22.5 13 Noroeste 34 Noroeste 0 -- -- 49
2020-09-21 17:00:00 21.5 11 Noroeste 24 Noroeste 0 -- -- 55
2020-09-21 16:00:00 21.3 12 Noroeste 25 Noroeste 0 -- -- 58
2020-09-21 15:00:00 21.4 11 Noroeste 25 Norte 0 -- -- 59
2020-09-21 14:00:00 19.8 12 Norte 25 Noroeste 0 -- -- 66
2020-09-21 13:00:00 19.2 6 Norte 19 Oeste 0 -- -- 65
2020-09-21 12:00:00 19.3 11 Noroeste 19 Noroeste 0 -- -- 64
2020-09-21 11:00:00 17.9 6 Noroeste 19 Oeste 0 -- -- 71
2020-09-21 10:00:00 17.1 7 Noroeste 13 Noroeste 0 -- -- 74
2020-09-21 09:00:00 14.7 3 Sur 8 Sur 0 -- -- 87
2020-09-21 08:00:00 15 3 Oeste 12 Oeste 0 -- -- 84
2020-09-21 07:00:00 15 3 Oeste 6 Noroeste 0 -- -- 86
2020-09-21 06:00:00 14.6 4 Este 6 Nordeste 0 -- -- 87
2020-09-21 05:00:00 14.9 2 Sudoeste 6 Noroeste 0 -- -- 85
2020-09-21 04:00:00 15.4 4 Oeste 6 Oeste 0 -- -- 81
2020-09-21 03:00:00 15.8 3 Noroeste 8 Este 0 -- -- 79
2020-09-21 02:00:00 15.6 3 Sur 8 Sudoeste 0 -- -- 78
2020-09-21 01:00:00 16.6 7 Sudoeste 17 Sudoeste 0 -- -- 75
2020-09-21 00:00:00 17.1 10 Sudoeste 16 Sudoeste 0 -- -- 72
2020-09-20 23:00:00 16.4 7 Sur 14 Oeste 0 -- -- 74
2020-09-20 22:00:00 17.7 6 Oeste 15 Noroeste 0 -- -- 71
2020-09-20 21:00:00 18.2 2 Norte 7 Norte 0 -- -- 70
2020-09-20 20:00:00 19.5 5 Norte 21 Norte 0 -- -- 64
2020-09-20 19:00:00 22.1 13 Noroeste 22 Noroeste 0 -- -- 55
2020-09-20 18:00:00 22.7 14 Sudoeste 22 Sudoeste 0 -- -- 47
2020-09-20 17:00:00 22.9 13 Sudoeste 36 Oeste 0 -- -- 46
2020-09-20 16:00:00 24 21 Sudoeste 34 Sudoeste 0 -- -- 44
2020-09-20 15:00:00 23.3 21 Sudoeste 37 Sudoeste 0 -- -- 47
2020-09-20 14:00:00 22 18 Oeste 32 Oeste 0 -- -- 52
2020-09-20 13:00:00 20.7 13 Oeste 27 Sudoeste 0 -- -- 57
2020-09-20 12:00:00 19.6 7 Sudoeste 22 Sudoeste 0 -- -- 62
2020-09-20 11:00:00 18.8 12 Sudoeste 32 Oeste 0 -- -- 65
2020-09-20 10:00:00 18.4 14 Oeste 28 Sudoeste 0 -- -- 67
2020-09-20 09:00:00 16.4 6 Oeste 14 Oeste 0 -- -- 75
2020-09-20 08:00:00 14.4 5 Oeste 14 Sudoeste 0 -- -- 79
2020-09-20 07:00:00 14.6 4 Norte 9 Noroeste 0 -- -- 78
2020-09-20 06:00:00 14.1 0 Calma 10 Noroeste 0 -- -- 79
2020-09-20 05:00:00 14.5 6 Oeste 19 Oeste 0 -- -- 77
2020-09-20 04:00:00 15 10 Oeste 15 Oeste 0 -- -- 75
2020-09-20 03:00:00 13.6 3 Sudoeste 10 Sudoeste 0 -- -- 76
2020-09-20 02:00:00 15.7 7 Sudoeste 18 Sudoeste 0 -- -- 69
2020-09-20 01:00:00 15.9 12 Sudoeste 26 Sudoeste 0 -- -- 67
2020-09-20 00:00:00 16.6 18 Sudoeste 31 Sudoeste 0 -- -- 64
2020-09-19 23:00:00 16.6 18 Sudoeste 33 Sudoeste 0 -- -- 65
2020-09-19 22:00:00 17.3 21 Sudoeste 32 Oeste 0 -- -- 64
2020-09-19 21:00:00 18.6 15 Sudoeste 33 Sudoeste 0 -- -- 57
2020-09-19 20:00:00 19.5 15 Oeste 30 Oeste 0 -- -- 56
2020-09-19 19:00:00 20.7 19 Oeste 36 Oeste 0 -- -- 52
2020-09-19 18:00:00 21.6 18 Oeste 33 Oeste 0 -- -- 49
2020-09-19 17:00:00 22 16 Oeste 37 Sudoeste 0 -- -- 44
2020-09-19 16:00:00 22.3 23 Sudoeste 43 Oeste 0 -- -- 41
2020-09-19 15:00:00 22.4 16 Sudoeste 40 Sudoeste 0 -- -- 44
2020-09-19 14:00:00 21.7 18 Sudoeste 44 Sudoeste 0 -- -- 48
2020-09-19 13:00:00 22.2 15 Oeste 32 Sudoeste 0 -- -- 47
2020-09-19 12:00:00 20.6 14 Sudoeste 45 Sudoeste 0 -- -- 51
2020-09-19 11:00:00 19.5 26 Sudoeste 41 Sudoeste 0 -- -- 56
2020-09-19 10:00:00 17.9 23 Sudoeste 35 Sudoeste 0 -- -- 67
2020-09-19 09:00:00 16.8 11 Sur 23 Sudoeste 0 -- -- 72
2020-09-19 08:00:00 15.7 12 Sur 22 Sudoeste 0 -- -- 77
2020-09-19 07:00:00 15.8 14 Sur 27 Sur 0 -- -- 77
2020-09-19 06:00:00 16.3 14 Sudoeste 28 Sudoeste 0 -- -- 77
2020-09-19 05:00:00 16.9 13 Sudoeste 27 Sur 0 -- -- 76
2020-09-19 04:00:00 15.6 10 Sur 17 Sur 0 -- -- 78
2020-09-19 03:00:00 15.8 10 Sur 23 Sudeste 0 -- -- 74
2020-09-19 02:00:00 16.3 13 Sur 24 Sur 0 -- -- 70
2020-09-19 01:00:00 14.9 15 Sur 28 Sur 0 -- -- 77
2020-09-19 00:00:00 15.3 14 Sur 22 Sudoeste 0 -- -- 75
2020-09-18 23:00:00 15 15 Sur 27 Sur 0.2 -- -- 80
2020-09-18 22:00:00 16.2 19 Sudoeste 61 Sudoeste 0.2 -- -- 77
2020-09-18 21:00:00 18.5 4 Sur 15 Sur 0 -- -- 77
2020-09-18 20:00:00 18.7 12 Sur 15 Sur 0 -- -- 74
2020-09-18 19:00:00 19.9 6 Sur 22 Sudoeste 0 -- -- 68
2020-09-18 18:00:00 20 14 Sudoeste 26 Sudoeste 0 -- -- 68
2020-09-18 17:00:00 18.8 10 Oeste 30 Sur 2.8 -- -- 72
2020-09-18 16:00:00 22.2 21 Sur 42 Sudoeste 0 -- -- 66
2020-09-18 15:00:00 23.4 22 Sur 35 Sur 0 -- -- 54
2020-09-18 14:00:00 23 13 Sur 29 Sudeste 0 -- -- 53
2020-09-18 13:00:00 21.8 14 Sur 28 Sudeste 0 -- -- 55
2020-09-18 12:00:00 19.5 17 Sudeste 26 Sudeste 0 -- -- 67
2020-09-18 11:00:00 18.8 7 Sudeste 15 Sudeste 0 -- -- 70
2020-09-18 10:00:00 18.5 4 Sudeste 31 Sur 0.2 -- -- 66
2020-09-18 09:00:00 19.9 15 Sur 44 Sur 0 -- -- 62
2020-09-18 08:00:00 20.4 15 Sur 26 Sur 0 -- -- 60
2020-09-18 07:00:00 20.2 18 Sur 36 Sur 0 -- -- 62
2020-09-18 06:00:00 20.5 21 Sur 33 Sur 0 -- -- 62
2020-09-18 05:00:00 21.1 9 Sudeste 26 Este 0 -- -- 54
2020-09-18 04:00:00 21.1 12 Este 26 Sudeste 0 -- -- 53
2020-09-18 03:00:00 21.1 12 Sudeste 26 Sur 0 -- -- 56
2020-09-18 02:00:00 20.9 10 Sur 23 Sur 0 -- -- 63
2020-09-18 01:00:00 21.2 13 Sur 27 Sur 0 -- -- 62
2020-09-18 00:00:00 22 18 Sur 28 Sur 0 -- -- 57
2020-09-17 23:00:00 22 8 Sudeste 27 Sudeste 0 -- -- 55
2020-09-17 22:00:00 22.8 12 Sur 23 Sur 0 -- -- 50
2020-09-17 21:00:00 22.4 6 Sudeste 17 Sur 0 -- -- 49
2020-09-17 20:00:00 24.9 12 Sur 26 Sur 0 -- -- 47
2020-09-17 19:00:00 25.7 15 Sur 29 Sur 0 -- -- 44
2020-09-17 18:00:00 26.4 18 Sur 27 Sudoeste 0 -- -- 40
2020-09-17 17:00:00 27.1 14 Sur 30 Sur 0 -- -- 36
2020-09-17 16:00:00 27.4 17 Sudoeste 39 Sur 0 -- -- 37
2020-09-17 15:00:00 27.5 20 Sur 41 Sudeste 0 -- -- 34
2020-09-17 14:00:00 27.5 16 Sur 36 Sur 0 -- -- 35
2020-09-17 13:00:00 26.2 8 Sudeste 21 Sur 0 -- -- 42
2020-09-17 12:00:00 24.3 12 Este 19 Sudeste 0 -- -- 46
2020-09-17 11:00:00 22.1 9 Este 14 Este 0 -- -- 51
2020-09-17 10:00:00 20.8 9 Este 12 Este 0 -- -- 53
2020-09-17 09:00:00 20.3 9 Sudeste 14 Sudeste 0 -- -- 50
2020-09-17 08:00:00 19.7 8 Sur 11 Sur 0 -- -- 55
2020-09-17 07:00:00 18.4 6 Sur 10 Sur 0 -- -- 62
2020-09-17 06:00:00 18.2 0 Calma 5 Este 0 -- -- 64
2020-09-17 05:00:00 17.8 0 Calma 4 Sudeste 0 -- -- 66
2020-09-17 04:00:00 18.8 4 Sur 10 Sudeste 0 -- -- 60
2020-09-17 03:00:00 18.5 3 Sur 6 Sudeste 0 -- -- 62
2020-09-17 02:00:00 18.8 2 Sur 5 Sudeste 0 -- -- 63
2020-09-17 01:00:00 20.2 2 Sur 7 Sudeste 0 -- -- 57
2020-09-17 00:00:00 22.5 5 Sur 14 Sudeste 0 -- -- 51
2020-09-16 23:00:00 22.2 8 Sur 14 Sudeste 0 -- -- 54
2020-09-16 22:00:00 22.5 10 Sudeste 16 Este 0 -- -- 54
2020-09-16 21:00:00 23.9 10 Este 14 Este 0 -- -- 48
2020-09-16 20:00:00 25.2 6 Este 15 Este 0 -- -- 45
2020-09-16 19:00:00 26.4 8 Este 20 Este 0 -- -- 43
2020-09-16 18:00:00 27.5 13 Este 22 Nordeste 0 -- -- 38
2020-09-16 17:00:00 28.5 15 Este 27 Este 0 -- -- 37
2020-09-16 16:00:00 27.9 15 Este 28 Este 0 -- -- 38
2020-09-16 15:00:00 28.4 7 Norte 23 Nordeste 0 -- -- 37
2020-09-16 14:00:00 28.2 9 Nordeste 22 Este 0 -- -- 39
2020-09-16 13:00:00 27.2 8 Nordeste 15 Nordeste 0 -- -- 46
2020-09-16 12:00:00 26.3 5 Nordeste 12 Este 0 -- -- 48
2020-09-16 11:00:00 24.9 3 Este -- -- -- -- -- 52
2020-09-16 10:00:00 22 0 Calma 6 Sur 0 -- -- 59
2020-09-16 09:00:00 18.4 5 Sur 8 Sur 0 -- -- 71
2020-09-16 08:00:00 17 4 Sur 8 Sur 0 -- -- 75
2020-09-16 07:00:00 16.8 2 Sudoeste 6 Noroeste 0 -- -- 78
2020-09-16 06:00:00 19.5 3 Noroeste 15 Sur 0 -- -- 66
2020-09-16 05:00:00 19.7 9 Sur 15 Sur 0 -- -- 67
2020-09-16 04:00:00 20.1 8 Sur 19 Sudoeste 0 -- -- 66
2020-09-16 03:00:00 21.2 10 Sudoeste 22 Sur 0 -- -- 62
2020-09-16 02:00:00 20.9 12 Sur 19 Sur 0 -- -- 63
2020-09-16 01:00:00 19.6 4 Sudoeste 11 Sudoeste 0 -- -- 68
2020-09-16 00:00:00 19.9 5 Sudeste 11 Sur 0 -- -- 68
2020-09-15 23:00:00 19.9 6 Sur 15 Sur 0 -- -- 67
2020-09-15 22:00:00 19.5 2 Sudoeste 5 Sur 0 -- -- 74
2020-09-15 21:00:00 20.7 3 Sur 9 Sudeste 0 -- -- 67
2020-09-15 20:00:00 21.8 5 Sudeste 20 Este 0 -- -- 70
2020-09-15 19:00:00 23.3 12 Este 22 Nordeste 0 -- -- 64
2020-09-15 18:00:00 24.3 17 Nordeste 28 Sudoeste 2.4 -- -- 62
2020-09-15 17:00:00 28.9 5 Nordeste 18 Este 0 -- -- 36
2020-09-15 16:00:00 28 8 Nordeste 16 Sudeste 0 -- -- 39
2020-09-15 15:00:00 28.7 9 Este 18 Este 0 -- -- 38
2020-09-15 14:00:00 27.2 5 Sur 14 Noroeste 0 -- -- 40
2020-09-15 13:00:00 26.4 6 Oeste 13 Noroeste 0 -- -- 43
2020-09-15 12:00:00 24.5 6 Noroeste 19 Oeste 0 -- -- 49
2020-09-15 11:00:00 23.7 4 Sudeste 15 Este 0 -- -- 49
2020-09-15 10:00:00 21.4 5 Sudeste 13 Sur 0 -- -- 60
2020-09-15 09:00:00 19.4 8 Sudeste 15 Sur 0 -- -- 66
2020-09-15 08:00:00 16.6 4 Este 6 Este 0 -- -- 74
2020-09-15 07:00:00 17.6 4 Sur 17 Sur 0 -- -- 72
2020-09-15 06:00:00 17.4 10 Sur 13 Sur 0 -- -- 74
2020-09-15 05:00:00 17.7 4 Sur 10 Sur 0 -- -- 77
2020-09-15 04:00:00 18.8 9 Este 27 Oeste 0 -- -- 70
2020-09-15 03:00:00 20.8 17 Oeste 52 Sudoeste 0 -- -- 55
2020-09-15 02:00:00 22.7 32 Sudoeste 51 Sudoeste 0 -- -- 48
2020-09-15 01:00:00 23 23 Sur 41 Sudoeste 0 -- -- 48
2020-09-15 00:00:00 23.4 19 Sudoeste 33 Sur 0 -- -- 44
2020-09-14 23:00:00 23.4 19 Sur 30 Sudoeste 0 -- -- 48
2020-09-14 22:00:00 23.4 8 Sudeste 22 Este 0 -- -- 49
2020-09-14 21:00:00 24.1 15 Este 26 Este 0 -- -- 47
2020-09-14 20:00:00 25.3 15 Este 32 Este 0 -- -- 44
2020-09-14 19:00:00 27.7 21 Este 29 Este 0 -- -- 39
2020-09-14 18:00:00 29.5 15 Este 27 Este 0 -- -- 33
2020-09-14 17:00:00 28.3 17 Este 37 Este 0 -- -- 35
2020-09-14 16:00:00 29.9 22 Este 37 Sudeste 0 -- -- 32
2020-09-14 15:00:00 29.8 19 Este 36 Este 0 -- -- 32
2020-09-14 14:00:00 29 16 Este 27 Este 0 -- -- 33
2020-09-14 13:00:00 27.8 11 Este 19 Este 0 -- -- 34
2020-09-14 12:00:00 27.1 8 Este 17 Este 0 -- -- 37
2020-09-14 11:00:00 25.3 5 Este 14 Este 0 -- -- 38
2020-09-14 10:00:00 23.2 7 Sudeste 13 Este 0 -- -- 43
2020-09-14 09:00:00 19.5 6 Sudeste 14 Sudeste 0 -- -- 53
2020-09-14 08:00:00 18.9 11 Sudeste 16 Sudeste 0 -- -- 53
2020-09-14 07:00:00 19 5 Sudeste 16 Sur 0 -- -- 52
2020-09-14 06:00:00 19 9 Sudeste 13 Sur 0 -- -- 52
2020-09-14 05:00:00 19.7 6 Sur 20 Sur 0 -- -- 49
2020-09-14 04:00:00 20 12 Sur 18 Sudoeste 0 -- -- 49
2020-09-14 03:00:00 20 5 Sur 16 Sur 0 -- -- 50
2020-09-14 02:00:00 19.2 5 Sudeste 11 Sur 0 -- -- 49
2020-09-14 01:00:00 20.3 8 Sudeste 14 Sudeste 0 -- -- 48
2020-09-14 00:00:00 20.3 3 Sur 12 Sudeste 0 -- -- 50
2020-09-13 23:00:00 21.2 8 Sudeste 12 Sudeste 0 -- -- 49
2020-09-13 22:00:00 22.9 9 Este 23 Sudeste 0 -- -- 47
2020-09-13 21:00:00 24.7 15 Este 22 Nordeste 0 -- -- 44
2020-09-13 20:00:00 26.4 14 Nordeste 28 Este 0 -- -- 37
2020-09-13 19:00:00 28.8 19 Este 32 Este 0 -- -- 31
2020-09-13 18:00:00 30 18 Este 30 Este 0 -- -- 29
2020-09-13 17:00:00 30.2 17 Este 34 Este 0 -- -- 27
2020-09-13 16:00:00 30.3 11 Nordeste 29 Sudeste 0 -- -- 27
2020-09-13 15:00:00 30.1 10 Nordeste 27 Nordeste 0 -- -- 25
2020-09-13 14:00:00 29.6 14 Este 27 Norte 0 -- -- 28
2020-09-13 13:00:00 28.3 13 Este 23 Este 0 -- -- 30
2020-09-13 12:00:00 26.6 13 Este 20 Este 0 -- -- 36
2020-09-13 11:00:00 25.3 9 Sudeste 16 Sudeste 0 -- -- 38
2020-09-13 10:00:00 22.3 4 Sudeste 11 Sur 0 -- -- 48
2020-09-13 09:00:00 17.9 5 Sur 11 Sudoeste 0 -- -- 60
2020-09-13 08:00:00 15.4 2 Sudoeste 9 Sur 0 -- -- 65
2020-09-13 07:00:00 15.4 8 Sur 11 Sur 0 -- -- 65
2020-09-13 06:00:00 15 5 Sur 9 Sur 0 -- -- 69
2020-09-13 05:00:00 15.1 4 Sur 10 Sur 0 -- -- 69
2020-09-13 04:00:00 16.5 2 Sur 7 Sudoeste 0 -- -- 65
2020-09-13 03:00:00 16.3 0 Calma 9 Sur 0 -- -- 64
2020-09-13 02:00:00 16.7 5 Sur 11 Sur 0 -- -- 62
2020-09-13 01:00:00 18.9 6 Sur 10 Sur 0 -- -- 56
2020-09-13 00:00:00 19.4 8 Sur 12 Sur 0 -- -- 55
2020-09-12 23:00:00 19.7 4 Sur 8 Sur 0 -- -- 53
2020-09-12 22:00:00 21.3 5 Este 8 Este 0 -- -- 48
2020-09-12 21:00:00 23 6 Este 10 Nordeste 0 -- -- 44
2020-09-12 20:00:00 25.3 9 Nordeste 18 Nordeste 0 -- -- 41
2020-09-12 19:00:00 26.8 12 Nordeste 23 Nordeste 0 -- -- 40
2020-09-12 18:00:00 27.7 13 Este 22 Este 0 -- -- 38
2020-09-12 17:00:00 28.1 12 Norte 24 Norte 0 -- -- 39
2020-09-12 16:00:00 28.5 11 Este 31 Este 0 -- -- 38
2020-09-12 15:00:00 28 12 Nordeste 22 Nordeste 0 -- -- 40
2020-09-12 14:00:00 26.5 3 Sur 12 Norte 0 -- -- 40
2020-09-12 13:00:00 25.3 4 Norte 11 Noroeste 0 -- -- 45
2020-09-12 12:00:00 23.4 4 Noroeste 11 Norte 0 -- -- 53
2020-09-12 11:00:00 21.7 4 Noroeste 11 Oeste 0 -- -- 59
2020-09-12 10:00:00 19.1 5 Noroeste 11 Noroeste 0 -- -- 68
2020-09-12 09:00:00 14.9 3 Sur 9 Sur 0 -- -- 76
2020-09-12 08:00:00 13.2 5 Sur 8 Sur 0 -- -- 77
2020-09-12 07:00:00 13.6 5 Sur 9 Sur 0 -- -- 75
2020-09-12 06:00:00 13.8 5 Sur 8 Sur 0 -- -- 72
2020-09-12 05:00:00 14.7 4 Sur 6 Sudoeste 0 -- -- 69
2020-09-12 04:00:00 14.5 4 Sur 6 Sur 0 -- -- 66
2020-09-12 03:00:00 14.6 3 Sudoeste 9 Sur 0 -- -- 64
2020-09-12 02:00:00 15.8 6 Sur 9 Sur 0 -- -- 60
2020-09-12 01:00:00 16.4 6 Sur 10 Sur 0 -- -- 58
2020-09-12 00:00:00 17.3 4 Sur 9 Sur 0 -- -- 55
2020-09-11 23:00:00 18.6 7 Sur 9 Sur 0 -- -- 53
2020-09-11 22:00:00 20.1 5 Sudeste 9 Este 0 -- -- 48
2020-09-11 21:00:00 21.9 8 Este 12 Nordeste 0 -- -- 44
2020-09-11 20:00:00 24.9 9 Nordeste 17 Nordeste 0 -- -- 39
2020-09-11 19:00:00 26.6 11 Norte 21 Norte 0 -- -- 35
2020-09-11 18:00:00 27.3 10 Norte 21 Norte 0 -- -- 33
2020-09-11 17:00:00 27.8 6 Norte 25 Noroeste 0 -- -- 31
2020-09-11 16:00:00 27.3 6 Norte 18 Oeste 0 -- -- 35
2020-09-11 15:00:00 26.5 8 Norte 19 Nordeste 0 -- -- 37
2020-09-11 14:00:00 25.3 10 Nordeste 16 Norte 0 -- -- 40
2020-09-11 13:00:00 24.5 8 Norte 16 Noroeste 0 -- -- 42
2020-09-11 12:00:00 22.7 6 Noroeste 19 Noroeste 0 -- -- 45
2020-09-11 11:00:00 20.7 6 Noroeste 14 Noroeste 0 -- -- 48
2020-09-11 10:00:00 18.1 7 Noroeste 11 Noroeste 0 -- -- 57
2020-09-11 09:00:00 14.5 2 Sur 8 Sur 0 -- -- 63
2020-09-11 08:00:00 11.9 4 Sur 10 Sur 0 -- -- 68
2020-09-11 07:00:00 12.2 4 Sur 8 Sudoeste 0 -- -- 73
2020-09-11 06:00:00 12.3 5 Sur 9 Sur 0 -- -- 69
2020-09-11 05:00:00 13.4 4 Sur 7 Sur 0 -- -- 66
2020-09-11 04:00:00 15.4 3 Sudoeste 11 Noroeste 0 -- -- 63
2020-09-11 03:00:00 16.4 7 Oeste 14 Noroeste 0 -- -- 61
2020-09-11 02:00:00 17.2 7 Noroeste 19 Oeste 0 -- -- 58
2020-09-11 01:00:00 17.5 5 Oeste 14 Oeste 0 -- -- 56
2020-09-11 00:00:00 18.5 8 Oeste 13 Oeste 0 -- -- 53
2020-09-10 23:00:00 18.8 6 Oeste 10 Oeste 0 -- -- 46
2020-09-10 22:00:00 20.5 6 Oeste 25 Noroeste 0 -- -- 40
2020-09-10 21:00:00 22.2 14 Noroeste 25 Noroeste 0 -- -- 35
2020-09-10 20:00:00 24.6 8 Noroeste 21 Norte 0 -- -- 36
2020-09-10 19:00:00 25.8 12 Norte 23 Noroeste 0 -- -- 35
2020-09-10 18:00:00 26.8 11 Oeste 24 Norte 0 -- -- 34
2020-09-10 17:00:00 26.7 16 Noroeste 28 Noroeste 0 -- -- 33
2020-09-10 16:00:00 26.7 12 Norte 30 Noroeste 0 -- -- 35
2020-09-10 15:00:00 26.6 13 Noroeste 30 Noroeste 0 -- -- 35
2020-09-10 14:00:00 25.2 11 Noroeste 26 Noroeste 0 -- -- 40
2020-09-10 13:00:00 24.1 10 Noroeste 21 Norte 0 -- -- 44
2020-09-10 12:00:00 22.5 10 Noroeste 24 Noroeste 0 -- -- 48
2020-09-10 11:00:00 20.2 15 Noroeste 25 Noroeste 0.2 -- -- 54
2020-09-10 10:00:00 17.4 8 Oeste 18 Oeste 0 -- -- 65
2020-09-10 09:00:00 14.4 3 Sudoeste 6 Noroeste 0 -- -- 75
2020-09-10 08:00:00 12.7 3 Sudoeste 6 Oeste 0 -- -- 79
2020-09-10 07:00:00 13.2 3 Oeste 10 Oeste 0 -- -- 83
2020-09-10 06:00:00 13.8 5 Oeste 12 Oeste 0 -- -- 84
2020-09-10 05:00:00 13.8 5 Noroeste 9 Oeste 0 -- -- 84
2020-09-10 04:00:00 14.8 2 Noroeste 12 Noroeste 0 -- -- 84
2020-09-10 03:00:00 15.9 0 Calma 5 Sudoeste 0 -- -- 87
2020-09-10 02:00:00 16.2 0 Calma 5 Sur 0 -- -- 86
2020-09-10 01:00:00 16.4 0 Calma 13 Sudeste 0 -- -- 84
2020-09-10 00:00:00 16.7 8 Sudeste 21 Este 0.2 -- -- 83
2020-09-09 23:00:00 18.6 13 Este 20 Este 0.2 -- -- 69
2020-09-09 22:00:00 20.2 13 Este 22 Este 0 -- -- 56
2020-09-09 21:00:00 21.4 13 Este 22 Este 0 -- -- 49
2020-09-09 20:00:00 23.2 7 Nordeste 14 Norte 0 -- -- 43
2020-09-09 19:00:00 24.2 7 Noroeste 19 Norte 0 -- -- 39
2020-09-09 18:00:00 23.8 6 Norte 18 Nordeste 0 -- -- 41
2020-09-09 17:00:00 24.9 7 Norte 21 Norte 0 -- -- 38
2020-09-09 16:00:00 24.3 6 Oeste 19 Oeste 0 -- -- 41
2020-09-09 15:00:00 23.5 5 Noroeste 15 Noroeste 0 -- -- 43
2020-09-09 14:00:00 22 4 Oeste 9 Sudoeste 0 -- -- 47
2020-09-09 13:00:00 19.3 2 Sudoeste 6 Sur 0 -- -- 57
2020-09-09 12:00:00 18.1 2 Sudoeste 5 Sudeste 0 -- -- 59
2020-09-09 11:00:00 17.6 2 Sudoeste 8 Noroeste 0 -- -- 60
2020-09-09 10:00:00 16.7 3 Norte 5 Norte 0 -- -- 62
2020-09-09 09:00:00 13.6 3 Sur 7 Sur 0 -- -- 71
2020-09-09 08:00:00 11.5 3 Sur 6 Sur 0 -- -- 73
2020-09-09 07:00:00 11.8 0 Calma 6 Sur 0 -- -- 70
2020-09-09 06:00:00 12.6 5 Sur 7 Sur 0 -- -- 66
2020-09-09 05:00:00 13.4 5 Sur 10 Sur 0 -- -- 63
2020-09-09 04:00:00 13.8 5 Sur 8 Sur 0 -- -- 61
2020-09-09 03:00:00 14.6 3 Sur 5 Sudoeste 0 -- -- 58
2020-09-09 02:00:00 14.9 0 Calma 8 Sur 0 -- -- 57
2020-09-09 01:00:00 14.8 3 Sur 5 Sur 0 -- -- 55
2020-09-09 00:00:00 16.5 4 Sur 6 Este 0 -- -- 50
2020-09-08 23:00:00 18.2 4 Este 9 Este 0 -- -- 46
2020-09-08 22:00:00 19.1 0 Calma 9 Este 0 -- -- 44
2020-09-08 21:00:00 20.1 4 Este 15 Este 0 -- -- 41
2020-09-08 20:00:00 21.2 9 Este 20 Este 0 -- -- 39
2020-09-08 19:00:00 22.1 10 Este 26 Nordeste 0 -- -- 36
2020-09-08 18:00:00 22.7 14 Este 23 Este 0 -- -- 35
2020-09-08 17:00:00 22.4 12 Este 30 Este 0 -- -- 35
2020-09-08 16:00:00 23.1 11 Este 30 Este 0 -- -- 33
2020-09-08 15:00:00 22.8 13 Este 28 Este 0 -- -- 36
2020-09-08 14:00:00 21.3 9 Este 26 Este 0 -- -- 42
2020-09-08 13:00:00 19.8 5 Nordeste 20 Nordeste 0 -- -- 43
2020-09-08 12:00:00 18.4 7 Norte 15 Norte 0 -- -- 51
2020-09-08 11:00:00 16.6 10 Noroeste 16 Noroeste 0 -- -- 58
2020-09-08 10:00:00 14.1 10 Noroeste 18 Noroeste 0 -- -- 67
2020-09-08 09:00:00 11.3 8 Oeste 12 Oeste 0 -- -- 78
2020-09-08 08:00:00 9.1 2 Oeste 8 Noroeste 0 -- -- 82
2020-09-08 07:00:00 9.5 3 Norte 12 Oeste 0 -- -- 80
2020-09-08 06:00:00 10.1 6 Oeste 13 Oeste 0 -- -- 78
2020-09-08 05:00:00 10.2 4 Oeste 10 Oeste 0 -- -- 77
2020-09-08 04:00:00 10.7 5 Oeste 17 Noroeste 0 -- -- 76
2020-09-08 03:00:00 11.2 7 Oeste 19 Oeste 0 -- -- 74
2020-09-08 02:00:00 11.7 8 Noroeste 23 Oeste 0 -- -- 71
2020-09-08 01:00:00 12.2 11 Oeste 19 Oeste 0 -- -- 68
2020-09-08 00:00:00 12.8 11 Noroeste 24 Noroeste 0 -- -- 64
2020-09-07 23:00:00 13.6 13 Noroeste 30 Noroeste 0 -- -- 59
2020-09-07 22:00:00 14.7 11 Noroeste 27 Noroeste 0 -- -- 53
2020-09-07 21:00:00 15.8 17 Noroeste 34 Norte 0 -- -- 47
2020-09-07 20:00:00 17.9 23 Noroeste 38 Noroeste 0 -- -- 41
2020-09-07 19:00:00 19.6 23 Noroeste 38 Noroeste 0 -- -- 36
2020-09-07 18:00:00 20.7 22 Noroeste 33 Noroeste 0 -- -- 34
2020-09-07 17:00:00 21.1 21 Noroeste 44 Noroeste 0 -- -- 36
2020-09-07 16:00:00 21 19 Noroeste 37 Noroeste 0 -- -- 38
2020-09-07 15:00:00 20.4 18 Noroeste 36 Noroeste 0 -- -- 40
2020-09-07 14:00:00 19.8 21 Noroeste 38 Noroeste 0 -- -- 41
2020-09-07 13:00:00 19.1 23 Noroeste 39 Noroeste 0 -- -- 44
2020-09-07 12:00:00 16.9 29 Noroeste 45 Noroeste 0 -- -- 50
2020-09-07 11:00:00 15.4 29 Noroeste 44 Noroeste 0 -- -- 55
2020-09-07 10:00:00 14.4 23 Noroeste 43 Noroeste 0 -- -- 59
2020-09-07 09:00:00 12.8 15 Noroeste 33 Oeste 0 -- -- 66
2020-09-07 08:00:00 11.5 19 Noroeste 36 Oeste 0 -- -- 71
2020-09-07 07:00:00 11.5 18 Oeste 34 Oeste 0 -- -- 72
2020-09-07 06:00:00 11.6 15 Noroeste 37 Noroeste 0 -- -- 73
2020-09-07 05:00:00 12 19 Noroeste 32 Noroeste 0 -- -- 71
2020-09-07 04:00:00 12.2 17 Noroeste 33 Noroeste 0 -- -- 71
2020-09-07 03:00:00 12.6 21 Noroeste 36 Noroeste 0 -- -- 70
2020-09-07 02:00:00 13 18 Noroeste 34 Oeste 0 -- -- 69
2020-09-07 01:00:00 13.3 14 Noroeste 32 Noroeste 0 -- -- 70
2020-09-07 00:00:00 14 18 Noroeste 32 Noroeste 0 -- -- 69
2020-09-06 23:00:00 15.4 18 Noroeste 34 Noroeste 0 -- -- 63
2020-09-06 22:00:00 16.4 18 Noroeste 34 Noroeste 0 -- -- 59
2020-09-06 21:00:00 18 15 Noroeste 30 Noroeste 0 -- -- 54
2020-09-06 20:00:00 19.2 14 Noroeste 28 Noroeste 0 -- -- 52
2020-09-06 19:00:00 21.2 14 Noroeste 26 Noroeste 0 -- -- 50
2020-09-06 18:00:00 21.9 18 Noroeste 31 Norte 0 -- -- 50
2020-09-06 17:00:00 23.1 16 Norte 28 Noroeste 0 -- -- 48
2020-09-06 16:00:00 23.2 14 Norte 30 Noroeste 0 -- -- 49
2020-09-06 15:00:00 22.6 14 Norte 28 Noroeste 0 -- -- 52
2020-09-06 14:00:00 21.9 16 Norte 25 Norte 0 -- -- 54
2020-09-06 13:00:00 20.6 9 Noroeste 23 Norte 0 -- -- 59
2020-09-06 12:00:00 19.7 10 Noroeste 25 Noroeste 0 -- -- 62
2020-09-06 11:00:00 17.5 10 Oeste 21 Noroeste 0 -- -- 69
2020-09-06 10:00:00 15.7 13 Noroeste 25 Noroeste 0 -- -- 76
2020-09-06 09:00:00 14.4 18 Noroeste 25 Noroeste 0 -- -- 81
2020-09-06 08:00:00 13.4 8 Noroeste 15 Noroeste 0 -- -- 86
2020-09-06 07:00:00 13.6 7 Oeste 15 Oeste 0 -- -- 85
2020-09-06 06:00:00 13.7 7 Oeste 18 Noroeste 0 -- -- 86
2020-09-06 05:00:00 13.9 8 Noroeste 16 Noroeste 0 -- -- 85
2020-09-06 04:00:00 14.3 11 Noroeste 19 Noroeste 0 -- -- 85
2020-09-06 03:00:00 14.8 9 Noroeste 21 Oeste 0 -- -- 84
2020-09-06 02:00:00 15.5 12 Noroeste 21 Oeste 0 -- -- 81
2020-09-06 01:00:00 16.2 11 Noroeste 23 Noroeste 0 -- -- 78
2020-09-06 00:00:00 17.2 13 Noroeste 26 Noroeste 0 -- -- 73
2020-09-05 23:00:00 18.9 12 Noroeste 23 Oeste 0 -- -- 67
2020-09-05 22:00:00 20.8 13 Noroeste 27 Noroeste 0 -- -- 62
2020-09-05 21:00:00 23.5 12 Noroeste 19 Noroeste 0 -- -- 53
2020-09-05 20:00:00 26.3 10 Norte 21 Norte 0 -- -- 41
2020-09-05 19:00:00 27.6 7 Norte 17 Nordeste 0 -- -- 38
2020-09-05 18:00:00 28.4 9 Norte 18 Nordeste 0 -- -- 37
2020-09-05 17:00:00 28.5 6 Noroeste 23 Norte 0 -- -- 36
2020-09-05 16:00:00 28.4 9 Norte 19 Nordeste 0 -- -- 37
2020-09-05 15:00:00 28 10 Norte 21 Norte 0 -- -- 39
2020-09-05 14:00:00 27.1 10 Noroeste 23 Norte 0 -- -- 41
2020-09-05 13:00:00 26.5 11 Norte 21 Nordeste 0 -- -- 43
2020-09-05 12:00:00 25.7 9 Norte 15 Norte 0 -- -- 45
2020-09-05 11:00:00 23.7 6 Norte 13 Norte 0 -- -- 52
2020-09-05 10:00:00 21.2 4 Noroeste 9 Noroeste 0 -- -- 59
2020-09-05 09:00:00 17.5 0 Calma 7 Sur 0 -- -- 67
2020-09-05 08:00:00 15.4 6 Sur 9 Sur 0 -- -- 71
2020-09-05 07:00:00 14.8 3 Sur 5 Sur 0 -- -- 72
2020-09-05 06:00:00 15.5 2 Sudoeste 5 Sur 0 -- -- 70
2020-09-05 05:00:00 16.9 3 Sudoeste 10 Sudeste 0 -- -- 66
2020-09-05 04:00:00 19 4 Sudeste 15 Sudoeste 0 -- -- 61
2020-09-05 03:00:00 20.2 9 Sur 15 Sur 0 -- -- 58
2020-09-05 02:00:00 19.4 7 Sur 12 Sur 0 -- -- 60
2020-09-05 01:00:00 19.6 5 Sur 10 Sur 0 -- -- 63
2020-09-05 00:00:00 19.9 8 Sur 14 Sur 0 -- -- 67
2020-09-04 23:00:00 20.8 2 Sudoeste 10 Este 0 -- -- 63
2020-09-04 22:00:00 22.7 6 Este 13 Nordeste 0 -- -- 60
2020-09-04 21:00:00 24.4 6 Este 19 Este 0 -- -- 47
2020-09-04 20:00:00 27.1 12 Este 24 Este 0 -- -- 34
2020-09-04 19:00:00 28.6 14 Este 26 Este 0 -- -- 32
2020-09-04 18:00:00 29.3 14 Este 25 Este 0 -- -- 32
2020-09-04 17:00:00 29.1 14 Nordeste 28 Este 0 -- -- 36
2020-09-04 16:00:00 29.3 10 Este 29 Nordeste 0 -- -- 37
2020-09-04 15:00:00 28.8 15 Este 27 Nordeste 0 -- -- 36
2020-09-04 14:00:00 28.4 9 Nordeste 19 Este 0 -- -- 39
2020-09-04 13:00:00 26.7 8 Nordeste 14 Nordeste 0 -- -- 36
2020-09-04 12:00:00 25.7 3 Norte 10 Noroeste 0 -- -- 44
2020-09-04 11:00:00 23.5 5 Noroeste 9 Oeste 0 -- -- 49
2020-09-04 10:00:00 21.1 3 Norte 5 Noroeste 0 -- -- 59
2020-09-04 09:00:00 17.6 0 Calma 3 Sur 0 -- -- 71
2020-09-04 08:00:00 15.4 3 Sudoeste 10 Sur 0 -- -- 78
2020-09-04 07:00:00 15.9 7 Sur 12 Sur 0 -- -- 76
2020-09-04 06:00:00 16.6 4 Sudeste 10 Sur 0 -- -- 73
2020-09-04 05:00:00 17.4 8 Sur 13 Sur 0 -- -- 70
2020-09-04 04:00:00 16.6 6 Sur 8 Sur 0 -- -- 69
2020-09-04 03:00:00 17.5 3 Sur 8 Sudeste 0 -- -- 60
2020-09-04 02:00:00 17.3 5 Sudeste 9 Sudeste 0 -- -- 65
2020-09-04 01:00:00 18 8 Sur 14 Sur 0 -- -- 52
2020-09-04 00:00:00 18.4 8 Sur 14 Sur 0 -- -- 44
2020-09-03 23:00:00 18.8 8 Sur 10 Sur 0 -- -- 44
2020-09-03 22:00:00 20 2 Sudeste 9 Nordeste 0 -- -- 41
2020-09-03 21:00:00 22.5 6 Nordeste 17 Nordeste 0 -- -- 36
2020-09-03 20:00:00 25.8 10 Este 21 Este 0 -- -- 33
2020-09-03 19:00:00 27.2 13 Este 25 Este 0 -- -- 32
2020-09-03 18:00:00 28.1 13 Este 23 Este 0 -- -- 31
2020-09-03 17:00:00 28.2 9 Este 23 Este 0 -- -- 32
2020-09-03 16:00:00 27.6 9 Nordeste 19 Nordeste 0 -- -- 34
2020-09-03 15:00:00 26.6 8 Sudeste 17 Sudeste 0 -- -- 37
2020-09-03 14:00:00 25.6 6 Noroeste 19 Nordeste 0 -- -- 41
2020-09-03 13:00:00 24 7 Este 17 Este 0 -- -- 41
2020-09-03 12:00:00 22.1 10 Este 21 Este 0 -- -- 42
2020-09-03 11:00:00 20.4 10 Este 18 Este 0 -- -- 44
2020-09-03 10:00:00 17.7 10 Sudeste 17 Sudeste 0 -- -- 51
2020-09-03 09:00:00 14.1 3 Sudeste 9 Sudeste 0 -- -- 62
2020-09-03 08:00:00 10.8 2 Sudoeste 7 Sur 0 -- -- 69
2020-09-03 07:00:00 10.8 5 Sur 10 Sudoeste 0 -- -- 67
2020-09-03 06:00:00 11.1 3 Sur 10 Sur 0 -- -- 67
2020-09-03 05:00:00 11.6 6 Sur 10 Sur 0 -- -- 65
2020-09-03 04:00:00 11.7 5 Sur 9 Sur 0 -- -- 63
2020-09-03 03:00:00 12.1 4 Sudoeste 8 Sur 0 -- -- 62
2020-09-03 02:00:00 13.7 5 Sur 11 Sur 0 -- -- 56
2020-09-03 01:00:00 15.2 4 Sudoeste 9 Oeste 0 -- -- 52
2020-09-03 00:00:00 15.3 3 Sudoeste 10 Sur 0 -- -- 47
2020-09-02 23:00:00 15.6 6 Sur 10 Sur 0 -- -- 44
2020-09-02 22:00:00 17 0 Calma 6 Noroeste 0 -- -- 42
2020-09-02 21:00:00 19.8 3 Noroeste 17 Noroeste 0 -- -- 37
2020-09-02 20:00:00 22.5 9 Norte 24 Norte 0 -- -- 33
2020-09-02 19:00:00 23.6 13 Norte 25 Noroeste 0 -- -- 30
2020-09-02 18:00:00 24.3 14 Norte 27 Norte 0 -- -- 31
2020-09-02 17:00:00 24.6 16 Norte 33 Noroeste 0 -- -- 32
2020-09-02 16:00:00 24.5 13 Norte 32 Norte 0 -- -- 32
2020-09-02 15:00:00 24.1 12 Noroeste 28 Oeste 0 -- -- 34
2020-09-02 14:00:00 22.9 13 Noroeste 26 Noroeste 0 -- -- 35
2020-09-02 13:00:00 21.4 13 Noroeste 25 Noroeste 0 -- -- 39
2020-09-02 12:00:00 20 14 Noroeste 27 Noroeste 0 -- -- 42
2020-09-02 11:00:00 18.4 13 Oeste 26 Oeste 0 -- -- 47
2020-09-02 10:00:00 16.4 18 Noroeste 30 Oeste 0 -- -- 55
2020-09-02 09:00:00 14 8 Noroeste 16 Noroeste 0 -- -- 67
2020-09-02 08:00:00 11.5 3 Oeste 10 Oeste 0 -- -- 76
2020-09-02 07:00:00 12.3 5 Oeste 18 Oeste 0 -- -- 73
2020-09-02 06:00:00 12.6 10 Oeste 21 Oeste 0 -- -- 74
2020-09-02 05:00:00 13.1 9 Oeste 19 Oeste 0 -- -- 73
2020-09-02 04:00:00 13.5 12 Noroeste 23 Oeste 0 -- -- 70
2020-09-02 03:00:00 13.8 11 Oeste 20 Noroeste 0 -- -- 69
2020-09-02 02:00:00 14.4 6 Oeste 16 Oeste 0 -- -- 62
2020-09-02 01:00:00 15.5 8 Oeste 15 Oeste 0 -- -- 56
2020-09-02 00:00:00 15.1 4 Oeste 8 Oeste 0 -- -- 52
2020-09-01 23:00:00 15.6 6 Sur 9 Sur 0 -- -- 50
2020-09-01 22:00:00 17.3 6 Sur 9 Sur 0 -- -- 45
2020-09-01 21:00:00 19.2 0 Calma 6 Este 0 -- -- 41
2020-09-01 20:00:00 21.5 5 Norte 14 Noroeste 0 -- -- 34
2020-09-01 19:00:00 22.8 7 Noroeste 17 Noroeste 0 -- -- 32
2020-09-01 18:00:00 23 5 Nordeste 16 Nordeste 0 -- -- 32
2020-09-01 17:00:00 22 9 Norte 18 Norte 0 -- -- 35
2020-09-01 16:00:00 22.3 4 Noroeste 17 Noroeste 0 -- -- 35
2020-09-01 15:00:00 21.9 7 Noroeste 15 Norte 0 -- -- 35
2020-09-01 14:00:00 21.8 5 Norte 13 Norte 0 -- -- 37
2020-09-01 13:00:00 21.8 6 Noroeste 14 Noroeste 0 -- -- 37
2020-09-01 12:00:00 19.6 5 Oeste 12 Oeste 0 -- -- 45
2020-09-01 11:00:00 19.5 3 Noroeste 9 Noroeste 0 -- -- 51
2020-09-01 10:00:00 17.9 4 Noroeste 8 Noroeste 0 -- -- 56
2020-09-01 09:00:00 15.8 3 Sudoeste 7 Sur 0 -- -- 64
2020-09-01 08:00:00 12.9 4 Sur 6 Sudeste 0 -- -- 68
2020-09-01 07:00:00 12.5 4 Sur 8 Sur 0 -- -- 67
2020-09-01 06:00:00 11.7 4 Sur 12 Sur 0 -- -- 61
2020-09-01 05:00:00 13.1 10 Sur 14 Sur 0 -- -- 57
2020-09-01 04:00:00 12.4 8 Sur 10 Sur 0 -- -- 55
2020-09-01 03:00:00 12.3 6 Sur 11 Sur 0 -- -- 55
2020-09-01 02:00:00 12.7 6 Sur 10 Sur 0 -- -- 54
2020-09-01 01:00:00 13.3 3 Sur 8 Sur 0 -- -- 52
2020-09-01 00:00:00 14.6 0 Calma 6 Sur 0 -- -- 48
2020-08-31 23:00:00 16.5 3 Sudoeste 6 Sudoeste 0 -- -- 42
2020-08-31 22:00:00 17.2 4 Sudeste 11 Este 0 -- -- 39
2020-08-31 21:00:00 18.2 9 Nordeste 14 Nordeste 0 -- -- 37
2020-08-31 20:00:00 20.6 9 Nordeste 22 Nordeste 0 -- -- 34
2020-08-31 19:00:00 22.9 15 Nordeste 27 Nordeste 0 -- -- 30
2020-08-31 18:00:00 25.5 12 Noroeste 20 Oeste 0 -- -- 23
2020-08-31 17:00:00 25 15 Noroeste 24 Noroeste 0 -- -- 25
2020-08-31 16:00:00 24 8 Oeste 21 Noroeste 0 -- -- 27
2020-08-31 15:00:00 23.2 7 Noroeste 18 Noroeste 0 -- -- 27
2020-08-31 14:00:00 21 6 Norte 19 Noroeste 0 -- -- 31
2020-08-31 13:00:00 20.1 5 Noroeste 15 Noroeste 0 -- -- 36
2020-08-31 12:00:00 18.2 6 Noroeste 18 Noroeste 0 -- -- 43
2020-08-31 11:00:00 16 10 Noroeste 24 Noroeste 0 -- -- 51
2020-08-31 10:00:00 14 14 Noroeste 23 Oeste 0 -- -- 54
2020-08-31 09:00:00 11.9 10 Oeste 18 Oeste 0 -- -- 63
2020-08-31 08:00:00 9.5 8 Oeste 18 Oeste 0 -- -- 72
2020-08-31 07:00:00 9.4 10 Oeste 25 Oeste 0 -- -- 73
2020-08-31 06:00:00 10.4 16 Oeste 25 Oeste 0 -- -- 68
2020-08-31 05:00:00 10.4 12 Oeste 23 Oeste 0 -- -- 70
2020-08-31 04:00:00 10.3 7 Noroeste 16 Oeste 0 -- -- 71
2020-08-31 03:00:00 10.9 8 Oeste 27 Oeste 0 -- -- 69
2020-08-31 02:00:00 11.1 10 Noroeste 26 Oeste 0 -- -- 69
2020-08-31 01:00:00 11.4 8 Noroeste 22 Noroeste 0 -- -- 67
2020-08-31 00:00:00 12 12 Noroeste 32 Noroeste 0 -- -- 65
2020-08-30 23:00:00 12.7 17 Noroeste 35 Noroeste 0 -- -- 64
2020-08-30 22:00:00 13.7 24 Noroeste 37 Noroeste 0 -- -- 60
2020-08-30 21:00:00 14.7 19 Noroeste 34 Norte 0 -- -- 53
2020-08-30 20:00:00 16.6 23 Noroeste 38 Noroeste 0 -- -- 48
2020-08-30 19:00:00 17.9 22 Noroeste 40 Noroeste 0 -- -- 45
2020-08-30 18:00:00 19 24 Noroeste 36 Norte 0 -- -- 43
2020-08-30 17:00:00 19.6 21 Noroeste 36 Norte 0 -- -- 41
2020-08-30 16:00:00 19.8 17 Noroeste 38 Noroeste 0 -- -- 37
2020-08-30 15:00:00 19.4 19 Noroeste 40 Noroeste 0 -- -- 40
2020-08-30 14:00:00 18 18 Noroeste 40 Noroeste 0 -- -- 43
2020-08-30 13:00:00 17.4 21 Noroeste 41 Noroeste 0 -- -- 46
2020-08-30 12:00:00 16 22 Noroeste 39 Noroeste 0 -- -- 49
2020-08-30 11:00:00 14.7 22 Noroeste 40 Noroeste 0 -- -- 53
2020-08-30 10:00:00 13.3 22 Noroeste 37 Noroeste 0 -- -- 55
2020-08-30 09:00:00 11.4 17 Oeste 32 Oeste 0 -- -- 62
2020-08-30 08:00:00 9.7 10 Oeste 26 Oeste 0 -- -- 70
2020-08-30 07:00:00 9.9 13 Oeste 27 Oeste 0 -- -- 68
2020-08-30 06:00:00 10.3 15 Noroeste 35 Oeste 0 -- -- 65
2020-08-30 05:00:00 10.5 21 Noroeste 37 Oeste 0 -- -- 65
2020-08-30 04:00:00 10.6 18 Noroeste 32 Oeste 0 -- -- 62
2020-08-30 03:00:00 11.1 17 Noroeste 36 Oeste 0 -- -- 68
2020-08-30 02:00:00 11.5 18 Noroeste 42 Oeste 0 -- -- 69
2020-08-30 01:00:00 12 22 Noroeste 44 Noroeste 0 -- -- 71
2020-08-30 00:00:00 12.8 22 Noroeste 38 Oeste 0 -- -- 69
2020-08-29 23:00:00 13.5 20 Noroeste 37 Oeste 0 -- -- 69
2020-08-29 22:00:00 14.3 27 Noroeste 46 Noroeste 0 -- -- 65
2020-08-29 21:00:00 15.4 18 Noroeste 41 Noroeste 0 -- -- 61
2020-08-29 20:00:00 16.5 26 Noroeste 48 Noroeste 0 -- -- 53
2020-08-29 19:00:00 19.8 24 Noroeste 39 Noroeste 0 -- -- 42
2020-08-29 18:00:00 20.8 26 Noroeste 43 Noroeste 0 -- -- 39
2020-08-29 17:00:00 20.8 21 Noroeste 39 Noroeste 0 -- -- 38
2020-08-29 16:00:00 21.1 22 Noroeste 37 Noroeste 0 -- -- 39
2020-08-29 15:00:00 20.5 18 Noroeste 41 Noroeste 0 -- -- 40
2020-08-29 14:00:00 19.3 22 Noroeste 39 Noroeste 0 -- -- 43
2020-08-29 13:00:00 18.1 21 Noroeste 37 Noroeste 0 -- -- 47
2020-08-29 12:00:00 15.9 25 Noroeste 42 Noroeste 0 -- -- 54
2020-08-29 11:00:00 15.7 23 Noroeste 41 Noroeste 0 -- -- 57
2020-08-29 10:00:00 13.7 24 Noroeste 41 Noroeste 0 -- -- 62
2020-08-29 09:00:00 13 19 Noroeste 36 Noroeste 0 -- -- 65
2020-08-29 08:00:00 12.8 13 Noroeste 27 Oeste 0 -- -- 68
2020-08-29 07:00:00 13 16 Noroeste 28 Oeste 0 -- -- 68
2020-08-29 06:00:00 13.1 17 Noroeste 29 Noroeste 0 -- -- 66
2020-08-29 05:00:00 13.3 16 Noroeste 30 Noroeste 0 -- -- 66
2020-08-29 04:00:00 13.6 16 Noroeste 30 Noroeste 0 -- -- 67
2020-08-29 03:00:00 13.8 19 Noroeste 33 Noroeste 0 -- -- 70
2020-08-29 02:00:00 14 18 Noroeste 36 Noroeste 0 -- -- 69
2020-08-29 01:00:00 14.3 18 Noroeste 33 Noroeste 0 -- -- 73
2020-08-29 00:00:00 14.7 18 Noroeste 38 Noroeste 0 -- -- 71
2020-08-28 23:00:00 15.2 17 Noroeste 32 Oeste 0 -- -- 72
2020-08-28 22:00:00 16 19 Noroeste 39 Noroeste 0 -- -- 71
2020-08-28 21:00:00 17.4 22 Noroeste 36 Noroeste 0 -- -- 67
2020-08-28 20:00:00 19.3 21 Noroeste 36 Noroeste 0 -- -- 62
2020-08-28 19:00:00 22.8 22 Noroeste 31 Norte 0 -- -- 56
2020-08-28 18:00:00 24.4 12 Norte 26 Norte 0 -- -- 56
2020-08-28 17:00:00 25 18 Noroeste 29 Norte 0.2 -- -- 57
2020-08-28 16:00:00 27.7 14 Norte 24 Noroeste 0 -- -- 49
2020-08-28 15:00:00 27.2 14 Norte 27 Norte 0 -- -- 51
2020-08-28 14:00:00 26.7 14 Norte 24 Norte 0 -- -- 52
2020-08-28 13:00:00 26.1 13 Noroeste 23 Noroeste 0 -- -- 53
2020-08-28 12:00:00 24.6 11 Oeste 23 Noroeste 0 -- -- 57
2020-08-28 11:00:00 22.9 13 Noroeste 23 Oeste 0 -- -- 63
2020-08-28 10:00:00 21 14 Noroeste 24 Noroeste 0 -- -- 70
2020-08-28 09:00:00 19.1 11 Noroeste 20 Noroeste 0 -- -- 78
2020-08-28 08:00:00 17.9 8 Noroeste 13 Noroeste 0 -- -- 82
2020-08-28 07:00:00 17.5 2 Sudoeste 4 Sudoeste 0 -- -- 77
2020-08-28 06:00:00 18.3 3 Sur 5 Oeste 0 -- -- 75
2020-08-28 05:00:00 19.2 3 Oeste 8 Noroeste 0 -- -- 71
2020-08-28 04:00:00 19.9 5 Norte 12 Noroeste 0 -- -- 69
2020-08-28 03:00:00 20.9 7 Noroeste 14 Noroeste 0 -- -- 66
2020-08-28 02:00:00 21.7 9 Noroeste 17 Oeste 0 -- -- 66
2020-08-28 01:00:00 23 8 Noroeste 15 Noroeste 0 -- -- 60
2020-08-28 00:00:00 23.1 2 Sudoeste 6 Sudoeste 0 -- -- 54